createdAt,value
2022-09-28T00:01:45.153Z,9.90
2022-09-28T00:04:12.049Z,9.90
2022-09-28T00:06:39.226Z,10.00
2022-09-28T00:09:06.061Z,9.90
2022-09-28T00:11:32.775Z,9.80
2022-09-28T00:14:00.464Z,9.80
2022-09-28T00:16:28.621Z,9.90
2022-09-28T00:18:55.528Z,9.80
2022-09-28T00:21:23.688Z,9.80
2022-09-28T00:23:54.250Z,9.70
2022-09-28T00:26:21.014Z,9.60
2022-09-28T00:28:47.786Z,9.60
2022-09-28T00:31:14.616Z,9.40
2022-09-28T00:33:41.596Z,9.40
2022-09-28T00:36:09.592Z,9.40
2022-09-28T00:38:36.417Z,9.40
2022-09-28T00:41:03.180Z,9.30
2022-09-28T00:43:30.063Z,9.20
2022-09-28T00:45:59.317Z,9.20
2022-09-28T00:48:27.642Z,9.20
2022-09-28T00:50:54.888Z,9.10
2022-09-28T00:53:24.261Z,9.10
2022-09-28T00:55:58.998Z,8.80
2022-09-28T00:58:36.655Z,8.80
2022-09-28T01:01:03.988Z,8.60
2022-09-28T01:03:32.553Z,8.60
2022-09-28T01:06:01.318Z,8.50
2022-09-28T01:08:29.312Z,8.40
2022-09-28T01:10:57.808Z,8.50
2022-09-28T01:13:24.661Z,8.60
2022-09-28T01:15:59.488Z,8.60
2022-09-28T01:18:37.251Z,8.40
2022-09-28T01:21:18.747Z,8.20
2022-09-28T01:24:11.315Z,8.20
2022-09-28T01:26:56.885Z,8.50
2022-09-28T01:29:29.826Z,8.50
2022-09-28T01:32:01.168Z,8.60
2022-09-28T01:34:31.667Z,8.60
2022-09-28T01:37:01.600Z,8.40
2022-09-28T01:39:34.052Z,8.40
2022-09-28T01:42:04.838Z,8.30
2022-09-28T01:44:33.252Z,8.40
2022-09-28T01:47:01.176Z,8.40
2022-09-28T01:49:34.283Z,8.20
2022-09-28T01:52:07.729Z,8.40
2022-09-28T01:54:38.310Z,8.50
2022-09-28T01:57:07.849Z,9.20
2022-09-28T01:59:36.702Z,9.40
2022-09-28T02:02:12.577Z,9.30
2022-09-28T02:04:48.769Z,9.10
2022-09-28T02:07:23.753Z,9.00
2022-09-28T02:09:54.846Z,9.10
2022-09-28T02:12:32.507Z,8.90
2022-09-28T02:15:01.685Z,9.00
2022-09-28T02:17:29.113Z,9.00
2022-09-28T02:19:56.017Z,8.90
2022-09-28T02:22:32.832Z,9.00
2022-09-28T02:25:03.254Z,8.70
2022-09-28T02:27:36.667Z,8.60
2022-09-28T02:30:05.028Z,8.60
2022-09-28T02:32:33.250Z,8.90
2022-09-28T02:35:00.726Z,8.70
2022-09-28T02:37:28.070Z,8.90
2022-09-28T02:39:54.870Z,9.20
2022-09-28T02:42:27.779Z,9.40
2022-09-28T02:44:57.645Z,9.20
2022-09-28T02:47:36.133Z,9.40
2022-09-28T02:50:15.739Z,9.20
2022-09-28T02:52:48.723Z,9.20
2022-09-28T02:55:15.517Z,9.30
2022-09-28T02:57:47.109Z,9.20
2022-09-28T03:00:23.830Z,9.10
2022-09-28T03:03:16.928Z,9.00
2022-09-28T03:05:56.851Z,8.80
2022-09-28T03:08:30.040Z,8.70
2022-09-28T03:10:57.032Z,8.90
2022-09-28T03:13:25.128Z,9.10
2022-09-28T03:15:52.081Z,9.00
2022-09-28T03:18:21.051Z,9.10
2022-09-28T03:20:47.981Z,9.10
2022-09-28T03:23:29.945Z,9.10
2022-09-28T03:25:56.812Z,9.10
2022-09-28T03:28:23.681Z,9.10
2022-09-28T03:30:50.541Z,9.00
2022-09-28T03:33:17.570Z,9.30
2022-09-28T03:35:46.527Z,9.30
2022-09-28T03:38:13.344Z,9.20
2022-09-28T03:40:40.957Z,9.50
2022-09-28T03:43:08.101Z,9.50
2022-09-28T03:45:35.136Z,9.50
2022-09-28T03:48:01.951Z,9.60
2022-09-28T03:50:28.932Z,9.40
2022-09-28T03:52:55.649Z,9.50
2022-09-28T03:55:22.734Z,9.50
2022-09-28T03:57:55.593Z,9.40
2022-09-28T04:00:22.352Z,9.50
2022-09-28T04:02:49.544Z,9.50
2022-09-28T04:05:16.404Z,9.40
2022-09-28T04:07:43.409Z,9.40
2022-09-28T04:10:10.174Z,9.20
2022-09-28T04:12:38.380Z,9.10
2022-09-28T04:15:05.976Z,8.90
2022-09-28T04:17:36.473Z,8.70
2022-09-28T04:20:08.732Z,8.60
2022-09-28T04:22:57.674Z,8.60
2022-09-28T04:25:24.518Z,8.60
2022-09-28T04:27:51.305Z,8.60
2022-09-28T04:30:19.023Z,8.60
2022-09-28T04:32:46.518Z,8.70
2022-09-28T04:35:13.617Z,8.70
2022-09-28T04:37:40.411Z,8.90
2022-09-28T04:40:07.450Z,8.80
2022-09-28T04:42:34.355Z,8.80
2022-09-28T04:45:01.092Z,8.70
2022-09-28T04:47:29.533Z,8.60
2022-09-28T04:50:17.887Z,8.50
2022-09-28T04:53:03.682Z,8.40
2022-09-28T04:55:30.491Z,8.20
2022-09-28T04:57:57.277Z,8.20
2022-09-28T05:00:24.050Z,8.10
2022-09-28T05:03:05.256Z,8.00
2022-09-28T05:06:04.396Z,8.10
2022-09-28T05:08:41.407Z,8.00
2022-09-28T05:11:10.262Z,7.80
2022-09-28T05:13:44.758Z,7.80
2022-09-28T05:16:14.080Z,7.60
2022-09-28T05:19:00.857Z,7.90
2022-09-28T05:21:28.019Z,7.90
2022-09-28T05:23:55.022Z,7.80
2022-09-28T05:26:22.820Z,7.80
2022-09-28T05:28:49.575Z,7.90
2022-09-28T05:31:36.645Z,7.90
2022-09-28T05:34:15.497Z,7.90
2022-09-28T05:36:43.646Z,8.00
2022-09-28T05:39:10.478Z,8.00
2022-09-28T05:41:37.514Z,8.00
2022-09-28T05:44:05.193Z,8.10
2022-09-28T05:46:31.977Z,8.20
2022-09-28T05:49:00.743Z,8.20
2022-09-28T05:51:27.981Z,8.30
2022-09-28T05:53:55.330Z,8.50
2022-09-28T05:56:22.942Z,9.10
2022-09-28T05:58:50.835Z,9.20
2022-09-28T06:01:19.900Z,9.30
2022-09-28T06:03:47.218Z,9.40
2022-09-28T06:06:13.947Z,9.50
2022-09-28T06:08:42.232Z,9.70
2022-09-28T06:11:35.266Z,9.70
2022-09-28T06:14:11.528Z,9.60
2022-09-28T06:16:43.598Z,9.70
2022-09-28T06:19:11.812Z,9.80
2022-09-28T06:21:59.483Z,10.10
2022-09-28T06:24:26.559Z,10.30
2022-09-28T06:26:53.377Z,10.50
2022-09-28T06:29:21.350Z,10.70
2022-09-28T06:31:48.434Z,10.80
2022-09-28T06:34:15.469Z,10.90
2022-09-28T06:36:44.038Z,11.00
2022-09-28T06:39:11.126Z,10.80
2022-09-28T06:41:37.979Z,10.80
2022-09-28T06:44:13.882Z,10.90
2022-09-28T06:49:49.371Z,11.30
2022-09-28T06:52:16.059Z,11.40
2022-09-28T06:55:01.533Z,11.50
2022-09-28T06:57:56.529Z,11.60
2022-09-28T07:00:23.337Z,11.90
2022-09-28T07:02:50.169Z,12.10
2022-09-28T07:05:46.194Z,12.30
2022-09-28T07:08:36.502Z,12.50
2022-09-28T07:11:38.568Z,12.60
2022-09-28T07:14:38.825Z,12.60
2022-09-28T07:17:13.563Z,12.90
2022-09-28T07:19:42.131Z,12.80
2022-09-28T07:22:08.903Z,12.80
2022-09-28T07:24:35.916Z,12.90
2022-09-28T07:27:35.488Z,13.20
2022-09-28T07:30:29.266Z,13.40
2022-09-28T07:33:11.464Z,13.50
2022-09-28T07:35:51.449Z,13.60
2022-09-28T07:38:18.352Z,13.40
2022-09-28T07:40:48.312Z,13.50
2022-09-28T07:43:16.594Z,13.60
2022-09-28T07:45:43.451Z,13.60
2022-09-28T07:51:08.249Z,13.70
2022-09-28T07:53:53.641Z,13.50
2022-09-28T07:56:35.319Z,13.60
2022-09-28T07:59:08.598Z,13.80
2022-09-28T08:01:53.866Z,13.90
2022-09-28T08:04:20.781Z,13.90
2022-09-28T08:09:14.728Z,14.30
2022-09-28T08:12:05.042Z,14.20
2022-09-28T08:14:41.693Z,14.20
2022-09-28T08:17:27.138Z,14.10
2022-09-28T08:19:56.782Z,14.20
2022-09-28T08:22:23.922Z,14.50
2022-09-28T08:24:53.676Z,14.60
2022-09-28T08:27:20.446Z,14.50
2022-09-28T08:29:48.196Z,15.00
2022-09-28T08:32:38.603Z,15.00
2022-09-28T08:35:24.046Z,14.80
2022-09-28T08:38:08.121Z,14.80
2022-09-28T08:41:24.300Z,14.70
2022-09-28T08:44:15.296Z,15.00
2022-09-28T08:47:12.880Z,14.70
2022-09-28T08:50:02.643Z,15.20
2022-09-28T08:52:53.882Z,15.20
2022-09-28T08:58:09.496Z,15.50
2022-09-28T09:00:47.043Z,15.50
2022-09-28T09:03:15.894Z,15.10
2022-09-28T09:06:04.392Z,15.40
2022-09-28T09:09:15.834Z,15.40
2022-09-28T09:11:52.114Z,15.50
2022-09-28T09:14:21.988Z,15.50
2022-09-28T09:17:08.251Z,15.50
2022-09-28T09:19:38.692Z,15.50
2022-09-28T09:22:42.782Z,15.40
2022-09-28T09:25:16.796Z,15.30
2022-09-28T09:28:03.744Z,15.20
2022-09-28T09:30:36.336Z,15.20
2022-09-28T09:33:13.374Z,15.00
2022-09-28T09:36:21.752Z,15.30
2022-09-28T09:39:23.935Z,15.50
2022-09-28T09:42:21.530Z,15.50
2022-09-28T09:45:23.809Z,15.40
2022-09-28T09:48:13.761Z,15.10
2022-09-28T09:50:45.944Z,14.60
2022-09-28T09:53:13.945Z,15.00
2022-09-28T09:55:44.038Z,15.40
2022-09-28T09:58:23.850Z,15.40
2022-09-28T10:01:21.579Z,14.90
2022-09-28T10:04:12.154Z,14.90
2022-09-28T10:06:41.702Z,15.00
2022-09-28T10:09:20.606Z,15.40
2022-09-28T10:11:47.732Z,15.60
2022-09-28T10:14:22.810Z,15.20
2022-09-28T10:16:57.965Z,14.90
2022-09-28T10:19:44.767Z,15.30
2022-09-28T10:22:31.513Z,15.80
2022-09-28T10:25:01.400Z,15.80
2022-09-28T10:27:30.430Z,15.90
2022-09-28T10:30:00.086Z,15.90
2022-09-28T10:32:36.334Z,16.20
2022-09-28T10:35:18.302Z,16.40
2022-09-28T10:37:53.873Z,16.30
2022-09-28T10:40:39.272Z,16.30
2022-09-28T10:43:17.026Z,16.00
2022-09-28T10:45:46.661Z,15.50
2022-09-28T10:48:16.456Z,15.40
2022-09-28T10:50:43.425Z,15.80
2022-09-28T10:53:19.558Z,15.70
2022-09-28T10:56:35.714Z,15.40
2022-09-28T10:59:24.923Z,15.50
2022-09-28T11:01:59.050Z,15.40
2022-09-28T11:04:30.526Z,16.00
2022-09-28T11:06:57.540Z,15.80
2022-09-28T11:09:30.551Z,15.70
2022-09-28T11:12:01.558Z,15.70
2022-09-28T11:14:37.205Z,16.00
2022-09-28T11:17:15.300Z,16.30
2022-09-28T11:19:42.999Z,16.40
2022-09-28T11:22:19.805Z,16.30
2022-09-28T11:24:47.824Z,16.00
2022-09-28T11:27:24.619Z,16.00
2022-09-28T11:29:54.681Z,16.20
2022-09-28T11:32:22.938Z,16.40
2022-09-28T11:35:17.050Z,16.60
2022-09-28T11:38:03.428Z,16.70
2022-09-28T11:40:50.505Z,16.80
2022-09-28T11:43:20.535Z,16.20
2022-09-28T11:45:52.131Z,16.30
2022-09-28T11:48:23.818Z,16.60
2022-09-28T11:50:54.615Z,16.70
2022-09-28T11:53:30.615Z,16.60
2022-09-28T11:56:08.829Z,16.30
2022-09-28T11:58:44.357Z,16.50
2022-09-28T12:01:18.790Z,16.40
2022-09-28T12:04:33.605Z,16.60
2022-09-28T12:07:18.900Z,16.40
2022-09-28T12:09:58.094Z,16.10
2022-09-28T12:12:30.795Z,16.10
2022-09-28T12:15:01.079Z,16.20
2022-09-28T12:17:32.332Z,16.30
2022-09-28T12:20:05.502Z,16.30
2022-09-28T12:22:33.577Z,16.40
2022-09-28T12:25:01.954Z,16.20
2022-09-28T12:27:35.131Z,16.10
2022-09-28T12:30:11.902Z,15.90
2022-09-28T12:32:41.500Z,15.80
2022-09-28T12:35:31.322Z,15.50
2022-09-28T12:38:16.883Z,15.10
2022-09-28T12:40:51.478Z,15.10
2022-09-28T12:43:27.369Z,15.10
2022-09-28T12:46:11.511Z,15.00
2022-09-28T12:51:11.768Z,14.70
2022-09-28T12:53:57.288Z,14.80
2022-09-28T12:56:36.763Z,14.70
2022-09-28T12:59:27.983Z,14.70
2022-09-28T13:02:01.256Z,14.80
2022-09-28T13:04:27.979Z,15.10
2022-09-28T13:07:04.736Z,14.90
2022-09-28T13:09:51.654Z,15.00
2022-09-28T13:12:21.404Z,14.90
2022-09-28T13:14:48.075Z,15.10
2022-09-28T13:17:21.065Z,15.30
2022-09-28T13:19:56.616Z,15.40
2022-09-28T13:22:49.310Z,15.50
2022-09-28T13:25:19.058Z,15.50
2022-09-28T13:27:54.838Z,15.10
2022-09-28T13:30:21.983Z,15.10
2022-09-28T13:32:49.482Z,14.90
2022-09-28T13:35:17.928Z,14.80
2022-09-28T13:37:44.897Z,14.80
2022-09-28T13:40:11.723Z,14.80
2022-09-28T13:42:44.585Z,14.80
2022-09-28T13:45:26.593Z,14.90
2022-09-28T13:47:56.344Z,14.90
2022-09-28T13:50:29.223Z,14.80
2022-09-28T13:53:11.259Z,14.80
2022-09-28T13:55:50.528Z,14.70
2022-09-28T13:58:46.846Z,14.60
2022-09-28T14:01:18.869Z,14.70
2022-09-28T14:04:04.354Z,14.70
2022-09-28T14:06:31.893Z,14.70
2022-09-28T14:08:58.592Z,14.70
2022-09-28T14:11:40.705Z,14.70
2022-09-28T14:14:07.500Z,14.70
2022-09-28T14:16:35.187Z,14.70
2022-09-28T14:19:09.228Z,14.70
2022-09-28T14:21:56.247Z,14.60
2022-09-28T14:24:22.998Z,14.50
2022-09-28T14:27:08.189Z,14.50
2022-09-28T14:29:36.848Z,14.40
2022-09-28T14:32:04.636Z,14.40
2022-09-28T14:34:33.094Z,14.40
2022-09-28T14:37:00.730Z,14.40
2022-09-28T14:39:32.988Z,14.30
2022-09-28T14:42:07.665Z,14.30
2022-09-28T14:44:54.436Z,14.30
2022-09-28T14:47:25.525Z,14.40
2022-09-28T14:50:00.212Z,14.40
2022-09-28T14:52:38.566Z,14.40
2022-09-28T14:55:11.180Z,14.40
2022-09-28T14:57:40.479Z,14.30
2022-09-28T15:00:16.207Z,14.30
2022-09-28T15:02:47.733Z,14.20
2022-09-28T15:05:16.534Z,14.30
2022-09-28T15:07:48.137Z,14.30
2022-09-28T15:10:35.248Z,14.30
2022-09-28T15:13:06.759Z,14.20
2022-09-28T15:15:43.511Z,14.20
2022-09-28T15:18:25.506Z,14.20
2022-09-28T15:20:52.353Z,14.10
2022-09-28T15:23:38.777Z,14.10
2022-09-28T15:26:07.204Z,14.00
2022-09-28T15:28:35.030Z,14.00
2022-09-28T15:31:03.177Z,14.00
2022-09-28T15:33:31.251Z,14.00
2022-09-28T15:36:04.260Z,14.00
2022-09-28T15:38:31.411Z,14.00
2022-09-28T15:40:58.544Z,13.90
2022-09-28T15:43:35.391Z,13.90
2022-09-28T15:46:19.727Z,13.90
2022-09-28T15:48:48.936Z,13.90
2022-09-28T15:51:15.822Z,13.90
2022-09-28T15:54:00.577Z,13.90
2022-09-28T15:56:27.590Z,13.80
2022-09-28T15:59:12.841Z,13.80
2022-09-28T16:01:40.408Z,13.80
2022-09-28T16:04:25.953Z,13.80
2022-09-28T16:07:11.074Z,13.80
2022-09-28T16:09:56.712Z,13.70
2022-09-28T16:12:24.576Z,13.70
2022-09-28T16:14:51.892Z,13.80
2022-09-28T16:17:22.459Z,13.70
2022-09-28T16:19:49.267Z,13.60
2022-09-28T16:22:21.987Z,13.70
2022-09-28T16:24:54.868Z,13.70
2022-09-28T16:27:24.393Z,13.60
2022-09-28T16:30:17.374Z,13.60
2022-09-28T16:32:53.168Z,13.60
2022-09-28T16:35:24.260Z,13.50
2022-09-28T16:37:59.004Z,13.50
2022-09-28T16:40:25.884Z,13.50
2022-09-28T16:42:53.923Z,13.50
2022-09-28T16:45:21.426Z,13.50
2022-09-28T16:47:48.129Z,13.60
2022-09-28T16:50:14.927Z,13.50
2022-09-28T16:52:41.590Z,13.50
2022-09-28T16:55:29.226Z,13.50
2022-09-28T16:57:57.318Z,13.50
2022-09-28T17:00:24.734Z,13.50
2022-09-28T17:02:52.207Z,13.50
2022-09-28T17:05:19.585Z,13.60
2022-09-28T17:07:47.383Z,13.50
2022-09-28T17:10:50.137Z,13.40
2022-09-28T17:13:24.269Z,13.40
2022-09-28T17:15:51.100Z,13.40
2022-09-28T17:18:18.867Z,13.40
2022-09-28T17:20:47.735Z,13.40
2022-09-28T17:23:14.899Z,13.40
2022-09-28T17:28:28.557Z,13.10
2022-09-28T17:30:55.391Z,13.00
2022-09-28T17:33:22.268Z,13.00
2022-09-28T17:35:51.292Z,13.00
2022-09-28T17:38:18.146Z,13.00
2022-09-28T17:40:44.895Z,13.10
2022-09-28T17:43:11.687Z,13.00
2022-09-28T17:45:39.379Z,12.80
2022-09-28T17:48:06.488Z,12.80
2022-09-28T17:50:34.048Z,12.60
2022-09-28T17:53:00.998Z,12.70
2022-09-28T17:55:28.337Z,12.70
2022-09-28T17:57:55.871Z,12.70
2022-09-28T18:00:23.118Z,12.70
2022-09-28T18:02:50.906Z,12.60
2022-09-28T18:05:17.804Z,12.40
2022-09-28T18:07:47.539Z,12.60
2022-09-28T18:10:15.781Z,12.50
2022-09-28T18:12:42.501Z,12.50
2022-09-28T18:15:09.551Z,12.50
2022-09-28T18:17:36.498Z,12.50
2022-09-28T18:20:03.630Z,12.40
2022-09-28T18:22:30.757Z,12.30
2022-09-28T18:24:57.608Z,12.20
2022-09-28T18:27:24.346Z,12.00
2022-09-28T18:29:51.216Z,12.10
2022-09-28T18:32:18.002Z,12.00
2022-09-28T18:34:45.162Z,12.10
2022-09-28T18:37:11.962Z,12.20
2022-09-28T18:39:38.868Z,12.00
2022-09-28T18:42:06.040Z,12.10
2022-09-28T18:44:32.791Z,12.10
2022-09-28T18:46:59.569Z,12.20
2022-09-28T18:49:26.414Z,12.10
2022-09-28T18:51:53.210Z,12.10
2022-09-28T18:54:20.030Z,12.10
2022-09-28T18:56:46.994Z,12.00
2022-09-28T18:59:13.919Z,12.00
2022-09-28T19:01:40.816Z,12.00
2022-09-28T19:04:08.649Z,12.00
2022-09-28T19:06:37.844Z,12.00
2022-09-28T19:09:04.712Z,12.00
2022-09-28T19:11:31.440Z,12.00
2022-09-28T19:13:58.606Z,12.00
2022-09-28T19:16:28.419Z,12.00
2022-09-28T19:18:58.430Z,12.00
2022-09-28T19:21:25.453Z,12.10
2022-09-28T19:23:52.246Z,12.00
2022-09-28T19:26:20.731Z,12.00
2022-09-28T19:28:47.679Z,12.00
2022-09-28T19:31:14.440Z,11.90
2022-09-28T19:33:41.239Z,11.90
2022-09-28T19:36:09.289Z,11.90
2022-09-28T19:38:36.995Z,11.90
2022-09-28T19:41:14.212Z,11.90
2022-09-28T19:43:40.935Z,11.90
2022-09-28T19:46:08.135Z,11.90
2022-09-28T19:48:35.066Z,11.90
2022-09-28T19:51:03.439Z,11.90
2022-09-28T19:53:31.290Z,11.90
2022-09-28T19:55:58.708Z,11.90
2022-09-28T19:58:28.977Z,11.80
2022-09-28T20:00:55.797Z,11.80
2022-09-28T20:03:22.510Z,11.80
2022-09-28T20:05:49.276Z,11.80
2022-09-28T20:08:16.095Z,11.70
2022-09-28T20:10:49.837Z,11.70
2022-09-28T20:13:16.688Z,11.70
2022-09-28T20:15:43.447Z,11.70
2022-09-28T20:18:10.970Z,11.80
2022-09-28T20:20:38.380Z,11.80
2022-09-28T20:23:05.200Z,11.80
2022-09-28T20:25:31.995Z,11.70
2022-09-28T20:27:58.709Z,11.80
2022-09-28T20:30:25.913Z,11.70
2022-09-28T20:32:52.646Z,11.70
2022-09-28T20:35:32.211Z,11.70
2022-09-28T20:38:00.084Z,11.70
2022-09-28T20:40:26.808Z,11.70
2022-09-28T20:42:53.623Z,11.70
2022-09-28T20:45:20.334Z,11.70
2022-09-28T20:47:47.080Z,11.70
2022-09-28T20:50:13.874Z,11.70
2022-09-28T20:52:40.759Z,11.70
2022-09-28T20:55:07.687Z,11.80
2022-09-28T20:57:34.425Z,11.80
2022-09-28T21:00:01.286Z,11.80
2022-09-28T21:02:28.134Z,11.80
2022-09-28T21:04:54.850Z,11.80
2022-09-28T21:07:21.593Z,11.80
2022-09-28T21:09:48.336Z,11.80
2022-09-28T21:12:15.092Z,11.80
2022-09-28T21:14:41.838Z,11.80
2022-09-28T21:17:08.563Z,11.70
2022-09-28T21:19:35.335Z,11.70
2022-09-28T21:22:02.057Z,11.60
2022-09-28T21:24:28.952Z,11.60
2022-09-28T21:26:55.794Z,11.60
2022-09-28T21:29:22.616Z,11.60
2022-09-28T21:31:49.338Z,11.60
2022-09-28T21:34:17.091Z,11.60
2022-09-28T21:36:43.957Z,11.60
2022-09-28T21:39:10.856Z,11.50
2022-09-28T21:41:37.604Z,11.60
2022-09-28T21:44:04.527Z,11.60
2022-09-28T21:46:31.347Z,11.60
2022-09-28T21:48:58.229Z,11.60
2022-09-28T21:51:25.021Z,11.50
2022-09-28T21:53:51.864Z,11.50
2022-09-28T21:56:18.829Z,11.50
2022-09-28T21:58:45.642Z,11.60
2022-09-28T22:01:14.045Z,11.60
2022-09-28T22:03:41.713Z,11.60
2022-09-28T22:06:08.552Z,11.60
2022-09-28T22:08:36.334Z,11.50
2022-09-28T22:11:04.858Z,11.60
2022-09-28T22:13:32.946Z,11.60
2022-09-28T22:16:00.098Z,11.50
2022-09-28T22:18:27.732Z,11.60
2022-09-28T22:20:58.433Z,11.50
2022-09-28T22:23:25.163Z,11.60
2022-09-28T22:25:57.034Z,11.60
2022-09-28T22:28:23.763Z,11.60
2022-09-28T22:30:50.582Z,11.50
2022-09-28T22:33:17.400Z,11.50
2022-09-28T22:35:44.115Z,11.60
2022-09-28T22:38:10.822Z,11.50
2022-09-28T22:40:41.834Z,11.60
2022-09-28T22:43:08.566Z,11.60
2022-09-28T22:45:35.265Z,11.60
2022-09-28T22:48:02.122Z,11.60
2022-09-28T22:50:28.897Z,11.60
2022-09-28T22:52:55.604Z,11.60
2022-09-28T22:55:22.311Z,11.60
2022-09-28T22:57:49.057Z,11.60
2022-09-28T23:00:15.874Z,11.60
2022-09-28T23:02:42.621Z,11.50
2022-09-28T23:05:09.356Z,11.50
2022-09-28T23:07:36.042Z,11.60
2022-09-28T23:10:02.788Z,11.50
2022-09-28T23:12:29.513Z,11.50
2022-09-28T23:14:56.343Z,11.50
2022-09-28T23:17:23.114Z,11.60
2022-09-28T23:19:49.731Z,11.60
2022-09-28T23:22:16.375Z,11.60
2022-09-28T23:24:43.077Z,11.60
2022-09-28T23:27:09.807Z,11.60
2022-09-28T23:29:36.473Z,11.70
2022-09-28T23:32:03.243Z,11.50
2022-09-28T23:34:29.974Z,11.40
2022-09-28T23:36:56.645Z,11.50
2022-09-28T23:39:23.310Z,11.60
2022-09-28T23:41:50.009Z,11.50
2022-09-28T23:44:16.639Z,11.40
2022-09-28T23:46:43.380Z,11.50
2022-09-28T23:49:10.087Z,11.40
2022-09-28T23:51:36.772Z,11.50
2022-09-28T23:54:03.448Z,11.40
2022-09-28T23:56:30.099Z,11.40
2022-09-28T23:58:56.949Z,11.40
